createdAt,value
2018-04-14T00:00:16.632Z,129.87
2018-04-14T00:02:44.907Z,127.13
2018-04-14T00:05:13.216Z,122.33
2018-04-14T00:07:40.785Z,127.63
2018-04-14T00:10:08.261Z,132.40
2018-04-14T00:12:36.914Z,133.27
2018-04-14T00:15:04.376Z,130.43
2018-04-14T00:17:32.688Z,129.83
2018-04-14T00:20:00.269Z,121.93
2018-04-14T00:22:27.857Z,134.27
2018-04-14T00:24:55.311Z,131.20
2018-04-14T00:27:22.828Z,139.60
2018-04-14T00:29:50.313Z,129.03
2018-04-14T00:32:17.833Z,131.63
2018-04-14T00:34:46.140Z,148.37
2018-04-14T00:37:14.411Z,131.47
2018-04-14T00:39:42.696Z,132.33
2018-04-14T00:42:10.165Z,150.50
2018-04-14T00:44:37.719Z,125.90
2018-04-14T00:47:05.223Z,129.80
2018-04-14T00:49:32.778Z,126.67
2018-04-14T00:52:00.281Z,129.57
2018-04-14T00:54:27.747Z,139.07
2018-04-14T00:56:55.349Z,138.60
2018-04-14T00:59:22.967Z,124.57
2018-04-14T01:01:51.228Z,134.67
2018-04-14T01:04:18.687Z,136.67
2018-04-14T01:06:46.549Z,134.70
2018-04-14T01:09:14.032Z,139.10
2018-04-14T01:11:41.510Z,132.87
2018-04-14T01:14:09.023Z,129.60
2018-04-14T01:16:36.521Z,146.20
2018-04-14T01:19:04.089Z,149.10
2018-04-14T01:21:31.556Z,140.87
2018-04-14T01:23:59.069Z,138.27
2018-04-14T01:26:26.580Z,141.90
2018-04-14T01:28:54.461Z,147.70
2018-04-14T01:31:22.042Z,145.30
2018-04-14T01:33:49.572Z,139.07
2018-04-14T01:36:17.045Z,132.50
2018-04-14T01:38:44.596Z,137.37
2018-04-14T01:41:12.115Z,128.53
2018-04-14T01:43:39.613Z,141.87
2018-04-14T01:46:07.899Z,133.40
2018-04-14T01:48:35.435Z,129.50
2018-04-14T01:51:02.967Z,138.17
2018-04-14T01:53:30.495Z,139.93
2018-04-14T01:55:58.056Z,138.63
2018-04-14T01:58:25.579Z,137.43
2018-04-14T02:00:53.843Z,144.00
2018-04-14T02:03:22.161Z,142.33
2018-04-14T02:05:49.656Z,146.87
2018-04-14T02:08:17.240Z,156.10
2018-04-14T02:10:45.584Z,137.50
2018-04-14T02:13:13.080Z,138.53
2018-04-14T02:15:40.701Z,150.73
2018-04-14T02:18:08.324Z,133.83
2018-04-14T02:20:35.914Z,138.67
2018-04-14T02:23:03.424Z,142.83
2018-04-14T02:25:30.930Z,135.90
2018-04-14T02:27:58.483Z,153.13
2018-04-14T02:30:25.996Z,137.33
2018-04-14T02:32:53.568Z,141.77
2018-04-14T02:35:21.142Z,142.00
2018-04-14T02:37:48.593Z,146.63
2018-04-14T02:40:16.179Z,138.30
2018-04-14T02:42:43.720Z,149.83
2018-04-14T02:45:11.970Z,162.67
2018-04-14T02:47:39.473Z,155.70
2018-04-14T02:50:06.994Z,149.60
2018-04-14T02:52:34.592Z,140.77
2018-04-14T02:55:02.226Z,157.43
2018-04-14T02:57:29.720Z,148.00
2018-04-14T02:59:57.209Z,142.37
2018-04-14T03:02:24.838Z,150.87
2018-04-14T03:04:52.356Z,139.73
2018-04-14T03:07:19.881Z,137.93
2018-04-14T03:09:47.363Z,153.50
2018-04-14T03:12:14.865Z,143.93
2018-04-14T03:14:43.146Z,156.67
2018-04-14T03:17:10.672Z,157.23
2018-04-14T03:19:38.185Z,148.37
2018-04-14T03:22:05.668Z,141.40
2018-04-14T03:24:33.219Z,158.03
2018-04-14T03:27:00.684Z,147.50
2018-04-14T03:29:28.257Z,155.20
2018-04-14T03:31:55.933Z,154.60
2018-04-14T03:34:23.456Z,135.80
2018-04-14T03:36:51.049Z,144.77
2018-04-14T03:39:18.622Z,153.73
2018-04-14T03:41:46.121Z,152.87
2018-04-14T03:44:13.614Z,152.47
2018-04-14T03:46:41.888Z,154.30
2018-04-14T03:49:10.182Z,157.00
2018-04-14T03:51:37.962Z,158.87
2018-04-14T03:54:05.561Z,152.47
2018-04-14T03:56:33.104Z,153.33
2018-04-14T03:59:00.624Z,147.87
2018-04-14T04:01:28.090Z,146.33
2018-04-14T04:03:56.544Z,156.17
2018-04-14T04:06:24.057Z,156.30
2018-04-14T04:08:52.294Z,154.63
2018-04-14T04:11:19.802Z,144.03
2018-04-14T04:13:47.316Z,156.70
2018-04-14T04:16:14.865Z,138.23
2018-04-14T04:18:42.393Z,142.57
2018-04-14T04:21:09.959Z,143.87
2018-04-14T04:23:37.449Z,131.37
2018-04-14T04:26:04.981Z,143.50
2018-04-14T04:28:32.461Z,131.33
2018-04-14T04:31:00.830Z,135.80
2018-04-14T04:33:29.138Z,139.90
2018-04-14T04:35:56.638Z,135.90
2018-04-14T04:38:24.160Z,129.87
2018-04-14T04:40:51.718Z,121.90
2018-04-14T04:43:19.177Z,117.97
2018-04-14T04:45:46.657Z,124.90
2018-04-14T04:48:14.215Z,106.70
2018-04-14T04:50:41.864Z,100.50
2018-04-14T04:53:09.290Z,114.90
2018-04-14T04:55:37.631Z,111.50
2018-04-14T04:58:05.195Z,110.30
2018-04-14T05:00:32.735Z,116.60
2018-04-14T05:03:00.282Z,112.77
2018-04-14T05:05:27.830Z,106.13
2018-04-14T05:07:57.296Z,111.77
2018-04-14T05:10:24.879Z,116.23
2018-04-14T05:12:52.381Z,104.50
2018-04-14T05:15:20.660Z,106.93
2018-04-14T05:17:49.061Z,107.37
2018-04-14T05:20:16.594Z,120.47
2018-04-14T05:22:44.078Z,125.90
2018-04-14T05:25:12.474Z,115.10
2018-04-14T05:27:39.925Z,118.00
2018-04-14T05:30:07.557Z,124.60
2018-04-14T05:32:35.773Z,121.57
2018-04-14T05:35:04.373Z,132.13
2018-04-14T05:37:32.009Z,128.83
2018-04-14T05:39:59.536Z,124.37
2018-04-14T05:42:27.066Z,119.47
2018-04-14T05:44:54.606Z,128.00
2018-04-14T05:47:22.095Z,129.43
2018-04-14T05:49:50.457Z,120.67
2018-04-14T05:52:17.996Z,117.93
2018-04-14T05:54:45.476Z,119.37
2018-04-14T05:57:13.840Z,114.57
2018-04-14T05:59:41.401Z,115.03
2018-04-14T06:02:08.831Z,115.87
2018-04-14T06:04:36.351Z,98.93
2018-04-14T06:07:04.642Z,114.00
2018-04-14T06:09:32.169Z,91.47
2018-04-14T06:11:59.710Z,89.63
2018-04-14T06:14:27.182Z,97.20
2018-04-14T06:16:54.673Z,83.00
2018-04-14T06:19:22.200Z,91.27
2018-04-14T06:21:49.701Z,89.80
2018-04-14T06:24:17.156Z,84.80
2018-04-14T06:26:44.826Z,93.67
2018-04-14T06:29:12.313Z,90.00
2018-04-14T06:31:39.958Z,96.80
2018-04-14T06:34:07.678Z,81.20
2018-04-14T06:36:35.180Z,86.57
2018-04-14T06:39:02.682Z,85.97
2018-04-14T06:41:30.972Z,81.17
2018-04-14T06:43:58.559Z,84.50
2018-04-14T06:46:26.197Z,87.20
2018-04-14T06:48:53.768Z,85.13
2018-04-14T06:51:21.313Z,85.27
2018-04-14T06:53:48.797Z,82.23
2018-04-14T06:56:16.306Z,82.20
2018-04-14T06:58:43.800Z,85.67
2018-04-14T07:01:11.353Z,91.70
2018-04-14T07:03:39.202Z,90.50
2018-04-14T07:06:06.685Z,82.67
2018-04-14T07:08:34.164Z,89.77
2018-04-14T07:11:01.669Z,85.07
2018-04-14T07:13:29.281Z,83.63
2018-04-14T07:15:56.800Z,97.40
2018-04-14T07:18:24.383Z,81.73
2018-04-14T07:20:52.013Z,88.33
2018-04-14T07:23:19.495Z,81.67
2018-04-14T07:25:47.015Z,87.33
2018-04-14T07:28:14.855Z,92.43
2018-04-14T07:30:42.278Z,83.20
2018-04-14T07:33:09.952Z,74.80
2018-04-14T07:35:37.416Z,81.67
2018-04-14T07:38:05.211Z,87.83
2018-04-14T07:40:32.672Z,81.00
2018-04-14T07:43:00.964Z,76.90
2018-04-14T07:45:28.478Z,72.00
2018-04-14T07:47:56.624Z,71.60
2018-04-14T07:50:24.853Z,72.90
2018-04-14T07:52:52.382Z,63.13
2018-04-14T07:55:20.651Z,61.70
2018-04-14T07:57:48.285Z,62.70
2018-04-14T08:00:15.729Z,70.17
2018-04-14T08:02:43.220Z,66.90
2018-04-14T08:05:10.708Z,72.77
2018-04-14T08:07:38.975Z,60.73
2018-04-14T08:10:07.256Z,61.80
2018-04-14T08:12:35.543Z,70.87
2018-04-14T08:15:03.795Z,71.90
2018-04-14T08:17:31.366Z,69.83
2018-04-14T08:19:58.839Z,72.90
2018-04-14T08:22:27.147Z,74.93
2018-04-14T08:24:54.593Z,77.90
2018-04-14T08:27:22.869Z,67.30
2018-04-14T08:29:51.134Z,76.03
2018-04-14T08:32:18.663Z,69.33
2018-04-14T08:34:46.307Z,74.67
2018-04-14T08:37:13.872Z,66.57
2018-04-14T08:39:41.305Z,62.57
2018-04-14T08:42:12.632Z,64.87
2018-04-14T08:44:40.085Z,68.20
2018-04-14T08:47:07.609Z,62.70
2018-04-14T08:49:35.207Z,66.37
2018-04-14T08:52:02.711Z,61.63
2018-04-14T08:54:30.276Z,59.23
2018-04-14T08:56:57.745Z,62.57
2018-04-14T08:59:25.374Z,62.80
2018-04-14T09:01:52.940Z,63.20
2018-04-14T09:04:21.804Z,65.37
2018-04-14T09:06:49.468Z,69.93
2018-04-14T09:09:16.874Z,66.83
2018-04-14T09:11:44.371Z,68.87
2018-04-14T09:14:12.662Z,66.50
2018-04-14T09:16:40.234Z,61.33
2018-04-14T09:19:07.758Z,67.37
2018-04-14T09:21:36.209Z,55.63
2018-04-14T09:24:03.739Z,57.03
2018-04-14T09:26:31.245Z,67.80
2018-04-14T09:28:58.694Z,62.67
2018-04-14T09:31:26.288Z,64.40
2018-04-14T09:33:53.787Z,62.60
2018-04-14T09:36:21.353Z,61.00
2018-04-14T09:38:49.070Z,61.03
2018-04-14T09:41:16.768Z,65.83
2018-04-14T09:43:45.136Z,66.43
2018-04-14T09:46:12.651Z,57.47
2018-04-14T09:48:40.452Z,64.90
2018-04-14T09:51:08.393Z,68.97
2018-04-14T09:53:35.838Z,67.50
2018-04-14T09:56:04.107Z,62.80
2018-04-14T09:58:31.635Z,64.00
2018-04-14T10:00:59.184Z,66.17
2018-04-14T10:03:26.842Z,79.10
2018-04-14T10:05:54.373Z,72.37
2018-04-14T10:08:22.630Z,70.63
2018-04-14T10:10:51.001Z,73.13
2018-04-14T10:13:18.527Z,67.17
2018-04-14T10:15:46.061Z,70.10
2018-04-14T10:18:13.541Z,69.00
2018-04-14T10:20:41.059Z,71.27
2018-04-14T10:23:09.322Z,75.13
2018-04-14T10:25:36.852Z,80.37
2018-04-14T10:28:04.294Z,84.60
2018-04-14T10:30:31.840Z,77.57
2018-04-14T10:33:00.763Z,77.87
2018-04-14T10:35:28.327Z,83.00
2018-04-14T10:37:55.876Z,71.87
2018-04-14T10:40:23.340Z,71.00
2018-04-14T10:42:51.613Z,78.27
2018-04-14T10:45:19.947Z,75.60
2018-04-14T10:47:47.512Z,71.77
2018-04-14T10:50:14.999Z,75.13
2018-04-14T10:52:42.502Z,74.73
2018-04-14T10:55:10.773Z,71.07
2018-04-14T10:57:39.108Z,74.33
2018-04-14T11:00:06.634Z,73.00
2018-04-14T11:02:34.135Z,77.10
2018-04-14T11:05:01.775Z,75.10
2018-04-14T11:07:29.269Z,77.83
2018-04-14T11:09:56.827Z,80.13
2018-04-14T11:12:25.046Z,77.60
2018-04-14T11:14:52.555Z,79.87
2018-04-14T11:17:20.064Z,80.47
2018-04-14T11:19:47.573Z,74.73
2018-04-14T11:22:15.173Z,79.60
2018-04-14T11:24:42.734Z,87.80
2018-04-14T11:27:10.976Z,72.90
2018-04-14T11:29:38.921Z,83.23
2018-04-14T11:32:07.200Z,74.57
2018-04-14T11:34:34.727Z,72.87
2018-04-14T11:37:02.250Z,74.93
2018-04-14T11:39:29.732Z,79.73
2018-04-14T11:41:57.469Z,68.13
2018-04-14T11:44:24.921Z,83.90
2018-04-14T11:46:54.441Z,72.70
2018-04-14T11:49:22.029Z,78.87
2018-04-14T11:51:50.391Z,80.00
2018-04-14T11:54:18.613Z,80.67
2018-04-14T11:56:46.126Z,74.57
2018-04-14T11:59:13.673Z,83.50
2018-04-14T12:01:41.259Z,80.37
2018-04-14T12:04:09.605Z,82.57
2018-04-14T12:06:37.220Z,84.23
2018-04-14T12:09:04.773Z,76.93
2018-04-14T12:11:32.340Z,86.23
2018-04-14T12:13:59.842Z,71.60
2018-04-14T12:16:27.733Z,86.87
2018-04-14T12:18:55.328Z,75.73
2018-04-14T12:21:23.633Z,77.70
2018-04-14T12:23:51.095Z,70.90
2018-04-14T12:26:18.707Z,80.90
2018-04-14T12:28:46.274Z,86.60
2018-04-14T12:31:15.082Z,78.53
2018-04-14T12:33:42.936Z,81.93
2018-04-14T12:36:10.396Z,80.87
2018-04-14T12:38:37.874Z,75.50
2018-04-14T12:41:06.610Z,78.90
2018-04-14T12:43:34.887Z,80.57
2018-04-14T12:46:03.144Z,79.60
2018-04-14T12:48:32.302Z,80.60
2018-04-14T12:50:59.834Z,75.97
2018-04-14T12:53:27.418Z,90.90
2018-04-14T12:55:55.693Z,83.93
2018-04-14T12:58:23.977Z,77.80
2018-04-14T13:00:51.531Z,68.33
2018-04-14T13:03:19.016Z,76.77
2018-04-14T13:05:46.713Z,77.13
2018-04-14T13:08:15.357Z,72.30
2018-04-14T13:10:43.623Z,74.17
2018-04-14T13:13:11.138Z,70.13
2018-04-14T13:15:38.663Z,66.80
2018-04-14T13:18:06.856Z,69.47
2018-04-14T13:20:36.385Z,77.13
2018-04-14T13:23:04.091Z,69.00
2018-04-14T13:25:31.663Z,65.43
2018-04-14T13:27:59.236Z,58.70
2018-04-14T13:30:27.533Z,63.07
2018-04-14T13:32:55.744Z,56.93
2018-04-14T13:35:23.225Z,69.67
2018-04-14T13:37:50.824Z,66.63
2018-04-14T13:40:18.258Z,61.77
2018-04-14T13:42:46.620Z,60.47
2018-04-14T13:45:14.190Z,58.87
2018-04-14T13:47:41.746Z,62.27
2018-04-14T13:50:11.602Z,57.60
2018-04-14T13:52:39.022Z,56.13
2018-04-14T13:55:07.277Z,55.40
2018-04-14T13:57:34.777Z,50.63
2018-04-14T14:00:02.463Z,60.47
2018-04-14T14:02:30.628Z,53.23
2018-04-14T14:04:58.315Z,62.17
2018-04-14T14:07:26.591Z,65.73
2018-04-14T14:09:54.193Z,58.63
2018-04-14T14:12:22.458Z,56.37
2018-04-14T14:14:49.955Z,52.90
2018-04-14T14:17:17.496Z,55.97
2018-04-14T14:19:45.008Z,64.40
2018-04-14T14:22:12.498Z,62.80
2018-04-14T14:24:41.567Z,60.80
2018-04-14T14:27:09.516Z,61.70
2018-04-14T14:29:37.198Z,58.40
2018-04-14T14:32:04.704Z,59.60
2018-04-14T14:34:33.098Z,64.67
2018-04-14T14:37:01.342Z,62.07
2018-04-14T14:39:28.968Z,60.73
2018-04-14T14:41:56.461Z,64.07
2018-04-14T14:44:23.961Z,62.20
2018-04-14T14:46:51.462Z,64.10
2018-04-14T14:49:18.998Z,58.97
2018-04-14T14:51:46.971Z,61.13
2018-04-14T14:54:15.164Z,64.97
2018-04-14T14:56:42.695Z,63.30
2018-04-14T14:59:10.287Z,61.37
2018-04-14T15:01:38.617Z,64.73
2018-04-14T15:04:06.207Z,66.27
2018-04-14T15:06:33.795Z,66.93
2018-04-14T15:09:02.174Z,66.10
2018-04-14T15:11:29.917Z,69.10
2018-04-14T15:13:58.099Z,66.53
2018-04-14T15:16:26.877Z,67.13
2018-04-14T15:18:54.360Z,69.87
2018-04-14T15:21:21.865Z,65.23
2018-04-14T15:23:49.469Z,63.83
2018-04-14T15:26:17.035Z,64.43
2018-04-14T15:28:44.665Z,69.07
2018-04-14T15:31:12.168Z,61.70
2018-04-14T15:33:39.845Z,66.03
2018-04-14T15:36:07.493Z,62.43
2018-04-14T15:38:34.999Z,68.23
2018-04-14T15:41:03.451Z,68.23
2018-04-14T15:43:31.493Z,63.60
2018-04-14T15:45:58.947Z,67.30
2018-04-14T15:48:26.546Z,62.47
2018-04-14T15:50:54.056Z,69.10
2018-04-14T15:53:21.566Z,72.23
2018-04-14T15:55:49.121Z,63.00
2018-04-14T15:58:16.693Z,60.70
2018-04-14T16:00:44.195Z,60.73
2018-04-14T16:03:11.713Z,63.43
2018-04-14T16:05:39.193Z,65.00
2018-04-14T16:08:07.466Z,62.57
2018-04-14T16:10:35.045Z,66.47
2018-04-14T16:13:02.591Z,64.90
2018-04-14T16:15:30.130Z,67.83
2018-04-14T16:17:57.627Z,67.83
2018-04-14T16:20:26.071Z,58.47
2018-04-14T16:22:54.319Z,67.87
2018-04-14T16:25:21.926Z,64.50
2018-04-14T16:27:49.486Z,64.33
2018-04-14T16:30:16.960Z,64.67
2018-04-14T16:32:44.969Z,63.93
2018-04-14T16:35:14.252Z,67.50
2018-04-14T16:37:41.832Z,61.87
2018-04-14T16:40:09.432Z,54.97
2018-04-14T16:42:37.784Z,57.20
2018-04-14T16:45:05.296Z,59.07
2018-04-14T16:47:33.128Z,63.53
2018-04-14T16:50:00.619Z,60.07
2018-04-14T16:52:28.180Z,59.70
2018-04-14T16:54:55.756Z,64.57
2018-04-14T16:57:23.259Z,70.47
2018-04-14T16:59:50.791Z,68.13
2018-04-14T17:02:18.275Z,64.87
2018-04-14T17:04:46.189Z,70.93
2018-04-14T17:07:13.778Z,71.40
2018-04-14T17:09:43.212Z,68.87
2018-04-14T17:12:11.563Z,67.67
2018-04-14T17:14:39.868Z,72.30
2018-04-14T17:17:07.379Z,78.73
2018-04-14T17:19:35.682Z,77.80
2018-04-14T17:22:04.836Z,82.30
2018-04-14T17:24:32.300Z,75.90
2018-04-14T17:26:59.910Z,84.60
2018-04-14T17:29:27.426Z,76.67
2018-04-14T17:31:55.195Z,82.70
2018-04-14T17:34:22.691Z,82.20
2018-04-14T17:36:50.193Z,80.10
2018-04-14T17:39:17.727Z,92.57
2018-04-14T17:41:46.114Z,86.83
2018-04-14T17:44:13.632Z,78.67
2018-04-14T17:46:41.189Z,78.00
2018-04-14T17:49:09.052Z,80.70
2018-04-14T17:51:36.643Z,90.70
2018-04-14T17:54:05.137Z,79.53
2018-04-14T17:56:32.585Z,77.60
2018-04-14T17:59:00.162Z,84.10
2018-04-14T18:01:27.789Z,90.00
2018-04-14T18:03:55.244Z,82.07
2018-04-14T18:06:22.783Z,86.97
2018-04-14T18:08:50.351Z,82.60
2018-04-14T18:11:17.960Z,83.33
2018-04-14T18:13:46.123Z,82.60
2018-04-14T18:16:13.862Z,100.67
2018-04-14T18:18:41.548Z,88.57
2018-04-14T18:21:09.696Z,85.33
2018-04-14T18:23:37.969Z,95.03
2018-04-14T18:26:05.522Z,96.17
2018-04-14T18:28:33.160Z,84.87
2018-04-14T18:31:00.711Z,96.77
2018-04-14T18:33:28.522Z,90.60
2018-04-14T18:35:56.068Z,91.50
2018-04-14T18:38:24.225Z,82.03
2018-04-14T18:40:52.730Z,85.43
2018-04-14T18:43:20.378Z,82.57
2018-04-14T18:45:48.095Z,85.53
2018-04-14T18:48:15.621Z,97.30
2018-04-14T18:50:43.170Z,93.33
2018-04-14T18:53:10.666Z,74.83
2018-04-14T18:55:38.248Z,85.37
2018-04-14T18:58:05.770Z,78.10
2018-04-14T19:00:33.222Z,85.07
2018-04-14T19:03:00.795Z,87.30
2018-04-14T19:05:28.273Z,86.47
2018-04-14T19:07:55.910Z,83.93
2018-04-14T19:10:23.492Z,81.07
2018-04-14T19:12:51.784Z,82.17
2018-04-14T19:15:19.323Z,78.10
2018-04-14T19:17:46.772Z,80.50
2018-04-14T19:20:14.309Z,81.73
2018-04-14T19:22:43.028Z,80.13
2018-04-14T19:25:10.582Z,79.10
2018-04-14T19:27:39.344Z,78.77
2018-04-14T19:30:08.549Z,80.67
2018-04-14T19:32:36.590Z,75.83
2018-04-14T19:35:04.183Z,83.87
2018-04-14T19:37:33.596Z,75.27
2018-04-14T19:40:01.333Z,79.47
2018-04-14T19:42:30.123Z,79.70
2018-04-14T19:44:57.720Z,77.67
2018-04-14T19:47:25.573Z,81.90
2018-04-14T19:49:53.192Z,79.13
2018-04-14T19:52:20.873Z,78.47
2018-04-14T19:54:49.189Z,83.40
2018-04-14T19:57:17.543Z,100.03
2018-04-14T19:59:45.261Z,78.40
2018-04-14T20:02:13.715Z,82.17
2018-04-14T20:04:41.291Z,83.40
2018-04-14T20:07:10.825Z,90.40
2018-04-14T20:09:39.440Z,77.73
2018-04-14T20:12:07.762Z,85.93
2018-04-14T20:14:35.293Z,83.33
2018-04-14T20:17:02.822Z,80.70
2018-04-14T20:19:31.217Z,95.90
2018-04-14T20:21:58.791Z,81.00
2018-04-14T20:24:26.526Z,79.00
2018-04-14T20:26:54.757Z,90.80
2018-04-14T20:29:22.321Z,85.73
2018-04-14T20:31:50.025Z,90.13
2018-04-14T20:34:17.621Z,89.93
2018-04-14T20:36:45.164Z,89.20
2018-04-14T20:39:12.714Z,86.93
2018-04-14T20:41:40.219Z,91.40
2018-04-14T20:44:07.763Z,86.47
2018-04-14T20:46:35.421Z,81.93
2018-04-14T20:49:03.120Z,88.87
2018-04-14T20:51:30.676Z,100.33
2018-04-14T20:53:58.948Z,82.63
2018-04-14T20:56:26.420Z,94.50
2018-04-14T20:58:54.744Z,89.63
2018-04-14T21:01:23.087Z,82.63
2018-04-14T21:03:51.362Z,83.50
2018-04-14T21:06:18.833Z,90.70
2018-04-14T21:08:46.365Z,88.20
2018-04-14T21:11:13.867Z,95.87
2018-04-14T21:13:41.390Z,96.00
2018-04-14T21:16:08.957Z,90.33
2018-04-14T21:18:36.528Z,91.33
2018-04-14T21:21:05.250Z,92.13
2018-04-14T21:23:32.793Z,101.33
2018-04-14T21:26:00.587Z,101.53
2018-04-14T21:28:28.069Z,94.00
2018-04-14T21:30:56.584Z,94.43
2018-04-14T21:33:24.096Z,99.77
2018-04-14T21:35:52.463Z,101.93
2018-04-14T21:38:20.126Z,90.03
2018-04-14T21:40:47.652Z,86.03
2018-04-14T21:43:15.147Z,88.20
2018-04-14T21:45:43.467Z,102.53
2018-04-14T21:48:11.011Z,90.73
2018-04-14T21:50:39.256Z,91.37
2018-04-14T21:53:06.840Z,91.20
2018-04-14T21:55:34.323Z,87.10
2018-04-14T21:58:01.823Z,96.70
2018-04-14T22:00:29.516Z,98.60
2018-04-14T22:02:57.726Z,91.53
2018-04-14T22:05:25.259Z,94.00
2018-04-14T22:07:52.783Z,98.77
2018-04-14T22:10:21.187Z,97.17
2018-04-14T22:12:49.017Z,94.57
2018-04-14T22:15:16.491Z,91.90
2018-04-14T22:17:44.801Z,93.70
2018-04-14T22:20:12.315Z,93.80
2018-04-14T22:22:41.597Z,99.57
2018-04-14T22:25:09.077Z,102.90
2018-04-14T22:27:38.612Z,108.10
2018-04-14T22:30:06.213Z,94.43
2018-04-14T22:32:33.874Z,97.87
2018-04-14T22:35:01.383Z,95.97
2018-04-14T22:37:29.668Z,102.13
2018-04-14T22:39:57.943Z,98.23
2018-04-14T22:42:26.299Z,96.30
2018-04-14T22:44:53.788Z,99.37
2018-04-14T22:47:22.064Z,95.80
2018-04-14T22:49:49.666Z,103.33
2018-04-14T22:52:17.263Z,97.77
2018-04-14T22:54:45.235Z,101.77
2018-04-14T22:57:12.755Z,104.70
2018-04-14T22:59:41.025Z,100.70
2018-04-14T23:02:09.323Z,102.07
2018-04-14T23:04:36.815Z,103.23
2018-04-14T23:07:04.421Z,94.90
2018-04-14T23:09:31.915Z,108.23
2018-04-14T23:11:59.461Z,109.57
2018-04-14T23:14:26.948Z,98.20
2018-04-14T23:16:54.781Z,106.87
2018-04-14T23:19:22.261Z,108.70
2018-04-14T23:21:50.709Z,107.10
2018-04-14T23:24:18.276Z,107.37
2018-04-14T23:26:45.919Z,102.47
2018-04-14T23:29:13.447Z,105.27
2018-04-14T23:31:41.028Z,106.73
2018-04-14T23:34:08.529Z,114.93
2018-04-14T23:36:36.054Z,114.03
2018-04-14T23:39:04.322Z,104.67
2018-04-14T23:41:32.630Z,105.17
2018-04-14T23:44:00.933Z,105.37
2018-04-14T23:46:28.412Z,105.13
2018-04-14T23:48:55.916Z,106.17
2018-04-14T23:51:24.283Z,106.70
2018-04-14T23:53:51.820Z,109.50
2018-04-14T23:56:19.302Z,108.03
2018-04-14T23:58:47.613Z,112.37
